Time;durP1;ratioP1;P1;durP2;ratioP2;P2;SDS_P1;SDS_P2;PMS_P1;PMS_P2;Temp;Humidity;BMP_temperature;BMP_pressure;BME280_temperature;BME280_humidity;BME280_pressure;Samples;Min_cycle;Max_cycle;Signal;HPM_P1;HPM_P2
2021/06/21 00:00:00;;;;;;;11.73;9.90;;;25.70;99.90;;;;;;5021665;28;20466;-82
2021/06/21 00:02:26;;;;;;;12.53;10.60;;;25.80;99.90;;;;;;5037742;28;20477;-82
2021/06/21 00:04:53;;;;;;;15.73;11.37;;;25.60;99.90;;;;;;5038669;28;20412;-80
2021/06/21 00:07:20;;;;;;;15.03;11.63;;;25.60;99.90;;;;;;5037210;28;20446;-81
2021/06/21 00:09:45;;;;;;;15.07;11.57;;;25.60;99.90;;;;;;5037519;28;20420;-82
2021/06/21 00:12:13;;;;;;;15.27;11.63;;;25.50;99.90;;;;;;5037354;28;20454;-82
2021/06/21 00:14:40;;;;;;;18.80;12.10;;;25.40;99.90;;;;;;5038817;28;20254;-82
2021/06/21 00:17:06;;;;;;;13.37;12.00;;;25.40;99.90;;;;;;5040238;28;20592;-83
2021/06/21 00:19:32;;;;;;;18.10;12.30;;;25.20;99.90;;;;;;5020867;28;20436;-82
2021/06/21 00:21:58;;;;;;;13.97;11.80;;;25.10;99.90;;;;;;5036878;28;20416;-83
2021/06/21 00:24:24;;;;;;;17.30;12.47;;;25.00;99.90;;;;;;5037252;28;20908;-81
2021/06/21 00:26:51;;;;;;;14.60;11.77;;;24.90;99.90;;;;;;5037022;28;20814;-81
2021/06/21 00:29:16;;;;;;;16.13;12.27;;;24.90;99.90;;;;;;5037964;28;20450;-82
2021/06/21 00:31:42;;;;;;;18.30;12.53;;;24.80;99.90;;;;;;5038032;28;20420;-82
2021/06/21 00:34:08;;;;;;;18.80;13.00;;;24.70;99.90;;;;;;5037669;28;20193;-82
2021/06/21 00:36:34;;;;;;;14.77;11.43;;;24.60;99.90;;;;;;5037332;28;20173;-83
2021/06/21 00:39:00;;;;;;;18.17;12.33;;;24.50;99.90;;;;;;5037718;28;20201;-81
2021/06/21 00:41:25;;;;;;;14.57;11.87;;;24.40;99.90;;;;;;5036404;28;20170;-81
2021/06/21 00:43:51;;;;;;;12.67;10.43;;;24.40;99.90;;;;;;5037401;28;21028;-80
2021/06/21 00:46:17;;;;;;;13.53;11.67;;;24.40;99.90;;;;;;5037162;28;20530;-81
2021/06/21 00:48:43;;;;;;;15.20;12.77;;;24.30;99.90;;;;;;5036192;28;20174;-81
2021/06/21 00:51:09;;;;;;;15.73;12.27;;;24.40;99.90;;;;;;5036939;28;20423;-82
2021/06/21 00:53:35;;;;;;;14.80;12.03;;;24.40;99.90;;;;;;5038143;28;20236;-81
2021/06/21 00:56:00;;;;;;;13.37;11.50;;;24.40;99.90;;;;;;5037541;28;20779;-82
2021/06/21 00:58:27;;;;;;;15.53;12.30;;;24.40;99.90;;;;;;5036875;28;20280;-81
2021/06/21 01:00:53;;;;;;;15.60;11.27;;;24.30;99.90;;;;;;5038377;28;20637;-80
2021/06/21 01:03:18;;;;;;;15.93;11.20;;;24.20;99.90;;;;;;5036763;28;20510;-82
2021/06/21 01:05:44;;;;;;;15.60;12.27;;;24.20;99.90;;;;;;5019356;28;20174;-81
2021/06/21 01:08:10;;;;;;;16.37;11.53;;;24.10;99.90;;;;;;5036458;28;20185;-82
2021/06/21 01:10:44;;;;;;;14.70;11.80;;;24.20;99.90;;;;;;5035216;28;20236;-80
2021/06/21 01:13:29;;;;;;;13.40;11.53;;;24.20;99.90;;;;;;5036192;28;20192;-81
2021/06/21 01:16:24;;;;;;;14.10;11.57;;;24.30;99.90;;;;;;5036464;28;20930;-83
2021/06/21 01:19:01;;;;;;;12.63;11.33;;;24.20;99.90;;;;;;5036149;28;20547;-82
2021/06/21 01:22:03;;;;;;;15.53;11.33;;;24.30;99.90;;;;;;5018701;28;20558;-81
2021/06/21 01:24:57;;;;;;;12.50;10.90;;;24.20;99.90;;;;;;5036930;28;20859;-82
2021/06/21 01:27:52;;;;;;;14.97;11.67;;;24.10;99.90;;;;;;5035570;28;20823;-81
2021/06/21 01:30:21;;;;;;;20.30;11.80;;;24.10;99.90;;;;;;5036803;28;20424;-81
2021/06/21 01:32:55;;;;;;;13.60;11.40;;;24.10;99.90;;;;;;5036409;28;20431;-81
2021/06/21 01:35:30;;;;;;;13.07;10.50;;;24.10;99.90;;;;;;5035998;28;20404;-81
2021/06/21 01:37:59;;;;;;;17.53;11.63;;;24.20;99.90;;;;;;5034751;28;20447;-81
2021/06/21 01:40:28;;;;;;;13.70;11.50;;;24.20;99.90;;;;;;5036244;28;20404;-81
2021/06/21 01:42:55;;;;;;;13.50;11.00;;;24.10;99.90;;;;;;5034833;28;20428;-82
2021/06/21 01:45:22;;;;;;;13.30;11.10;;;24.00;99.90;;;;;;5034359;28;20781;-82
2021/06/21 01:47:50;;;;;;;13.40;11.40;;;23.80;99.90;;;;;;5033879;28;20821;-82
2021/06/21 01:50:22;;;;;;;13.90;11.63;;;23.90;99.90;;;;;;5035463;28;20482;-83
2021/06/21 01:53:05;;;;;;;13.60;10.63;;;23.80;99.90;;;;;;5034832;28;20434;-81
2021/06/21 01:55:33;;;;;;;17.27;10.50;;;23.60;99.90;;;;;;5033251;28;20498;-81
2021/06/21 01:57:59;;;;;;;15.30;11.50;;;23.60;99.90;;;;;;5034159;28;20458;-81
2021/06/21 02:00:26;;;;;;;14.77;11.00;;;23.60;99.90;;;;;;5032875;28;20508;-81
2021/06/21 02:02:53;;;;;;;12.90;11.10;;;23.60;99.90;;;;;;5025213;28;71383;-81
2021/06/21 02:05:19;;;;;;;13.33;10.87;;;23.60;99.90;;;;;;5034069;28;20461;-81
2021/06/21 02:07:49;;;;;;;13.17;11.30;;;23.50;99.90;;;;;;5033680;28;20495;-80
2021/06/21 02:10:18;;;;;;;13.27;11.80;;;23.40;99.90;;;;;;5034710;28;20903;-80
2021/06/21 02:12:45;;;;;;;13.40;10.63;;;23.30;99.90;;;;;;5033528;28;20426;-80
2021/06/21 02:15:14;;;;;;;14.07;10.80;;;23.40;99.90;;;;;;5035338;28;20416;-81
2021/06/21 02:17:40;;;;;;;18.13;11.77;;;23.30;99.90;;;;;;5035734;28;20827;-81
2021/06/21 02:20:07;;;;;;;14.20;12.17;;;23.40;99.90;;;;;;5045207;28;20408;-81
2021/06/21 02:22:33;;;;;;;15.00;11.03;;;23.40;99.90;;;;;;5053901;28;20462;-81
2021/06/21 02:25:01;;;;;;;14.27;12.07;;;23.40;99.90;;;;;;5051713;28;20432;-81
2021/06/21 02:27:28;;;;;;;17.40;13.37;;;23.30;99.90;;;;;;5055658;28;20173;-81
2021/06/21 02:29:55;;;;;;;14.60;12.80;;;23.30;99.90;;;;;;5055546;28;20424;-81
2021/06/21 02:32:21;;;;;;;13.80;12.30;;;23.10;99.90;;;;;;5052365;28;20440;-81
2021/06/21 02:34:47;;;;;;;18.27;12.83;;;23.00;99.90;;;;;;5054488;28;20451;-82
2021/06/21 02:37:13;;;;;;;15.93;11.90;;;23.10;99.90;;;;;;5050372;28;20472;-82
2021/06/21 02:39:39;;;;;;;18.23;12.00;;;23.20;99.90;;;;;;5048871;28;20415;-81
2021/06/21 02:42:05;;;;;;;15.63;12.40;;;23.30;99.90;;;;;;5036339;28;20248;-81
2021/06/21 02:44:31;;;;;;;16.93;11.90;;;23.50;99.90;;;;;;5036805;28;20185;-82
2021/06/21 02:46:57;;;;;;;15.47;12.10;;;23.30;99.90;;;;;;5035426;28;20422;-82
2021/06/21 02:49:22;;;;;;;18.07;11.90;;;23.00;99.90;;;;;;5018037;28;20633;-81
2021/06/21 02:52:01;;;;;;;14.57;11.57;;;23.60;99.90;;;;;;5035019;28;20177;-81
2021/06/21 02:55:07;;;;;;;16.60;12.57;;;24.20;99.90;;;;;;5018162;28;20188;-81
2021/06/21 02:57:40;;;;;;;16.50;12.50;;;24.30;99.90;;;;;;5033985;28;20464;-81
2021/06/21 03:00:06;;;;;;;15.23;12.37;;;24.60;99.90;;;;;;5035858;28;20408;-82
2021/06/21 03:02:34;;;;;;;16.53;13.00;;;24.80;99.90;;;;;;5034262;28;20784;-82
2021/06/21 03:05:01;;;;;;;17.47;14.00;;;24.80;99.90;;;;;;5036078;28;20412;-82
2021/06/21 03:07:28;;;;;;;16.80;12.80;;;24.80;99.90;;;;;;5035210;28;20431;-81
2021/06/21 03:09:54;;;;;;;16.97;13.60;;;24.80;99.90;;;;;;5035354;28;20420;-81
2021/06/21 03:12:26;;;;;;;15.90;13.53;;;24.60;99.90;;;;;;5035614;28;20431;-82
2021/06/21 03:14:51;;;;;;;18.50;13.80;;;24.60;99.90;;;;;;5035717;28;20416;-82
2021/06/21 03:17:21;;;;;;;16.70;12.90;;;24.50;99.90;;;;;;5036109;28;20459;-82
2021/06/21 03:19:47;;;;;;;15.00;11.80;;;24.50;99.90;;;;;;5035010;28;20173;-82
2021/06/21 03:22:16;;;;;;;15.70;13.07;;;24.50;99.90;;;;;;5017893;28;20509;-82
2021/06/21 03:24:42;;;;;;;16.60;12.10;;;24.40;99.90;;;;;;5035550;28;20762;-82
2021/06/21 03:27:08;;;;;;;15.77;13.43;;;24.40;99.90;;;;;;5034766;28;20435;-82
2021/06/21 03:29:37;;;;;;;15.30;12.60;;;24.40;99.90;;;;;;5036196;28;20166;-82
2021/06/21 03:32:27;;;;;;;15.63;13.07;;;24.50;99.90;;;;;;5017793;28;20420;-82
2021/06/21 03:34:58;;;;;;;14.80;11.73;;;24.50;99.90;;;;;;5035023;28;20496;-82
2021/06/21 03:37:24;;;;;;;15.27;12.13;;;24.50;99.90;;;;;;5036007;28;20456;-82
2021/06/21 03:39:49;;;;;;;17.37;11.90;;;24.50;99.90;;;;;;5035400;28;20758;-82
2021/06/21 03:42:15;;;;;;;14.03;10.80;;;24.40;99.90;;;;;;5033427;28;20276;-82
2021/06/21 03:44:40;;;;;;;18.40;11.30;;;24.20;99.90;;;;;;5035496;28;20292;-81
2021/06/21 03:47:09;;;;;;;11.73;9.50;;;24.30;99.90;;;;;;5035575;28;20201;-82
2021/06/21 03:49:34;;;;;;;10.20;9.10;;;24.30;99.90;;;;;;5035286;28;20581;-83
2021/06/21 03:52:00;;;;;;;11.60;8.80;;;24.40;99.90;;;;;;5034980;28;20412;-82
2021/06/21 03:54:25;;;;;;;9.33;8.30;;;24.60;99.90;;;;;;5034419;28;20185;-82
2021/06/21 03:56:51;;;;;;;8.73;7.80;;;24.60;99.90;;;;;;5017081;28;20550;-82
2021/06/21 03:59:19;;;;;;;8.50;7.60;;;24.70;99.90;;;;;;5034737;28;20653;-82
2021/06/21 04:01:45;;;;;;;9.33;7.60;;;24.80;99.90;;;;;;5018278;28;20201;-82
2021/06/21 04:04:10;;;;;;;13.77;7.73;;;24.50;99.90;;;;;;5035011;28;20448;-83
2021/06/21 04:06:36;;;;;;;11.87;8.67;;;24.20;99.90;;;;;;5037081;28;20182;-83
2021/06/21 04:09:01;;;;;;;9.83;8.10;;;24.10;99.90;;;;;;5018892;28;20191;-82
2021/06/21 04:11:27;;;;;;;12.23;8.00;;;24.10;99.90;;;;;;5038310;28;20181;-82
2021/06/21 04:13:53;;;;;;;8.67;7.40;;;23.80;99.90;;;;;;5022634;28;20200;-83
2021/06/21 04:16:19;;;;;;;12.03;7.73;;;23.60;99.90;;;;;;5021466;28;20273;-82
2021/06/21 04:18:44;;;;;;;13.30;8.70;;;23.50;99.90;;;;;;5037669;28;20501;-82
2021/06/21 04:21:10;;;;;;;10.60;9.47;;;23.30;99.90;;;;;;5021508;28;20185;-82
2021/06/21 04:23:36;;;;;;;21.60;9.90;;;23.10;99.90;;;;;;5037131;28;20220;-82
2021/06/21 04:26:01;;;;;;;9.70;8.50;;;23.10;99.90;;;;;;5037760;28;20177;-82
2021/06/21 04:28:27;;;;;;;15.07;11.80;;;23.30;99.90;;;;;;5037393;28;20203;-83
2021/06/21 04:30:53;;;;;;;17.77;12.67;;;23.40;99.90;;;;;;5036057;28;20180;-82
2021/06/21 04:33:18;;;;;;;17.80;13.77;;;23.40;99.90;;;;;;5036635;28;20276;-81
2021/06/21 04:35:44;;;;;;;20.33;14.90;;;23.20;99.90;;;;;;5036998;28;20181;-82
2021/06/21 04:38:09;;;;;;;16.77;13.10;;;23.00;99.90;;;;;;5036023;28;20205;-82
2021/06/21 04:40:37;;;;;;;16.20;13.87;;;23.00;99.90;;;;;;5020099;28;20177;-83
2021/06/21 04:43:03;;;;;;;16.33;14.00;;;22.90;99.90;;;;;;5037499;28;20217;-82
2021/06/21 04:45:29;;;;;;;17.33;14.33;;;22.90;99.90;;;;;;5040195;28;21136;-83
2021/06/21 04:47:54;;;;;;;17.20;14.43;;;22.80;99.90;;;;;;5043802;28;20416;-83
2021/06/21 04:50:20;;;;;;;18.07;14.03;;;22.80;99.90;;;;;;5041744;28;20177;-83
2021/06/21 04:52:49;;;;;;;13.60;12.13;;;22.80;99.90;;;;;;5042111;28;20220;-82
2021/06/21 04:55:16;;;;;;;15.20;13.00;;;22.70;99.90;;;;;;5043661;28;20641;-82
2021/06/21 04:57:43;;;;;;;14.63;13.10;;;22.70;99.90;;;;;;5043721;28;20916;-82
2021/06/21 05:00:11;;;;;;;16.20;14.07;;;22.50;99.90;;;;;;5044486;28;20412;-82
2021/06/21 05:02:37;;;;;;;15.80;13.00;;;22.40;99.90;;;;;;5040032;28;20459;-82
2021/06/21 05:05:03;;;;;;;15.10;12.77;;;22.50;99.90;;;;;;5041171;28;20408;-82
2021/06/21 05:07:29;;;;;;;15.60;13.40;;;22.40;99.90;;;;;;5042922;28;20208;-83
2021/06/21 05:09:55;;;;;;;15.63;13.53;;;22.40;99.90;;;;;;5043318;28;20423;-83
2021/06/21 05:12:20;;;;;;;17.37;13.40;;;22.40;99.90;;;;;;5040880;28;20223;-84
2021/06/21 05:14:46;;;;;;;13.80;12.10;;;22.40;99.90;;;;;;5041832;28;20191;-83
2021/06/21 05:17:12;;;;;;;16.90;14.20;;;22.40;99.90;;;;;;5040755;28;20216;-82
2021/06/21 05:19:39;;;;;;;15.23;13.63;;;22.40;99.90;;;;;;5041795;28;20198;-82
2021/06/21 05:22:06;;;;;;;13.70;11.67;;;22.50;99.90;;;;;;5041115;28;20451;-82
2021/06/21 05:24:34;;;;;;;15.30;12.50;;;22.50;99.90;;;;;;5043743;28;20408;-83
2021/06/21 05:27:01;;;;;;;15.43;13.83;;;22.50;99.90;;;;;;5027802;28;20423;-84
2021/06/21 05:29:26;;;;;;;15.37;13.40;;;22.40;99.90;;;;;;5042742;28;20419;-83
2021/06/21 05:31:52;;;;;;;14.27;12.87;;;22.40;99.90;;;;;;5043854;28;20436;-82
2021/06/21 05:34:17;;;;;;;17.70;12.40;;;22.40;99.90;;;;;;5050098;28;20189;-83
2021/06/21 05:36:43;;;;;;;14.50;12.83;;;22.50;99.90;;;;;;5042958;28;20231;-83
2021/06/21 05:39:09;;;;;;;21.00;12.60;;;22.80;99.90;;;;;;5042216;28;20714;-84
2021/06/21 05:41:35;;;;;;;20.27;11.40;;;23.30;99.90;;;;;;5040819;28;20235;-83
2021/06/21 05:44:00;;;;;;;15.67;11.67;;;23.40;99.90;;;;;;5036448;28;20436;-82
2021/06/21 05:46:26;;;;;;;18.10;13.53;;;23.60;99.90;;;;;;5037510;28;20198;-82
2021/06/21 05:48:52;;;;;;;18.03;13.37;;;23.30;99.90;;;;;;5038432;28;20182;-81
2021/06/21 05:51:17;;;;;;;13.73;12.33;;;23.20;99.90;;;;;;5042110;28;20277;-83
2021/06/21 05:53:43;;;;;;;14.27;12.63;;;23.40;99.90;;;;;;5041825;28;20253;-81
2021/06/21 05:56:08;;;;;;;15.40;13.80;;;23.50;99.90;;;;;;5039090;28;20669;-82
2021/06/21 05:58:34;;;;;;;16.03;13.23;;;23.30;99.90;;;;;;5022589;28;20185;-82
2021/06/21 06:00:59;;;;;;;16.80;14.60;;;23.20;99.90;;;;;;5015737;28;20199;-81
2021/06/21 06:03:25;;;;;;;18.10;14.57;;;23.10;99.90;;;;;;5018234;28;20202;-82
2021/06/21 06:05:51;;;;;;;15.50;13.83;;;23.30;99.90;;;;;;5036480;28;20193;-82
2021/06/21 06:08:17;;;;;;;15.23;13.63;;;23.60;99.90;;;;;;5044823;28;20201;-82
2021/06/21 06:10:43;;;;;;;13.10;11.80;;;24.20;99.90;;;;;;5021095;28;20959;-81
2021/06/21 06:13:09;;;;;;;18.00;12.10;;;24.80;99.90;;;;;;5026320;28;20452;-84
2021/06/21 06:15:34;;;;;;;17.43;12.87;;;25.60;99.90;;;;;;5017407;28;20490;-84
2021/06/21 06:18:00;;;;;;;13.20;11.10;;;26.30;99.90;;;;;;5025921;28;20201;-85
2021/06/21 06:20:26;;;;;;;11.87;10.37;;;26.70;99.90;;;;;;5024736;28;20208;-85
2021/06/21 06:22:51;;;;;;;14.00;10.77;;;27.10;99.90;;;;;;5044645;28;20197;-84
2021/06/21 06:25:17;;;;;;;12.80;11.60;;;27.40;99.90;;;;;;5041776;28;20188;-84
2021/06/21 06:27:44;;;;;;;14.27;12.87;;;27.70;99.90;;;;;;5022719;28;20177;-83
2021/06/21 06:30:11;;;;;;;13.20;11.70;;;27.40;99.90;;;;;;5039671;28;20204;-83
2021/06/21 06:32:38;;;;;;;14.67;13.17;;;27.10;99.90;;;;;;5039763;28;20530;-82
2021/06/21 06:35:06;;;;;;;15.03;12.77;;;26.70;99.90;;;;;;5015636;28;20441;-83
2021/06/21 06:37:32;;;;;;;14.77;13.33;;;26.80;99.90;;;;;;5018838;28;20449;-84
2021/06/21 06:39:58;;;;;;;16.20;11.67;;;27.30;99.90;;;;;;5017943;28;20436;-83
2021/06/21 06:42:26;;;;;;;13.90;12.50;;;27.40;99.90;;;;;;5018414;28;20443;-85
2021/06/21 06:44:52;;;;;;;14.10;12.70;;;27.70;99.90;;;;;;5007336;28;20185;-85
2021/06/21 06:47:18;;;;;;;16.53;13.17;;;27.90;99.90;;;;;;5042688;28;20431;-84
2021/06/21 06:49:43;;;;;;;12.43;11.00;;;27.60;99.90;;;;;;5034623;28;20185;-84
2021/06/21 06:52:10;;;;;;;12.87;11.43;;;27.50;99.90;;;;;;5038213;28;20219;-84
2021/06/21 06:57:20;;;;;;;18.07;12.90;;;27.90;99.90;;;;;;5041858;28;20474;-85
2021/06/21 06:59:45;;;;;;;15.10;13.00;;;28.00;99.90;;;;;;5039043;28;20982;-84
2021/06/21 07:02:17;;;;;;;14.53;12.43;;;28.00;99.90;;;;;;5043393;28;20198;-84
2021/06/21 07:04:42;;;;;;;13.67;12.27;;;28.00;99.90;;;;;;5037258;28;20179;-83
2021/06/21 07:07:08;;;;;;;12.20;11.00;;;27.40;99.90;;;;;;5038654;28;20423;-85
2021/06/21 07:09:34;;;;;;;23.50;11.80;;;27.60;99.90;;;;;;5042192;28;20276;-87
2021/06/21 07:12:00;;;;;;;13.90;12.40;;;28.00;99.90;;;;;;5038462;28;20307;-84
2021/06/21 07:14:26;;;;;;;20.93;12.87;;;28.20;99.90;;;;;;5044738;28;20431;-86
2021/06/21 07:16:52;;;;;;;13.80;12.47;;;28.30;99.90;;;;;;5043852;28;20185;-85
2021/06/21 07:19:18;;;;;;;12.27;11.03;;;28.20;99.90;;;;;;5048256;28;20416;-85
2021/06/21 07:21:46;;;;;;;16.13;12.57;;;28.30;99.90;;;;;;5047138;28;20435;-85
2021/06/21 07:24:13;;;;;;;14.13;12.67;;;28.50;99.90;;;;;;5051081;28;20446;-85
2021/06/21 07:26:39;;;;;;;14.33;12.10;;;28.60;99.90;;;;;;5047384;28;20428;-85
2021/06/21 07:29:06;;;;;;;18.80;13.27;;;28.50;99.90;;;;;;5030710;28;20484;-85
2021/06/21 07:31:33;;;;;;;17.50;13.53;;;28.00;99.90;;;;;;5047974;28;20416;-85
2021/06/21 07:33:59;;;;;;;19.10;13.13;;;28.00;99.90;;;;;;5047455;28;20432;-85
2021/06/21 07:36:24;;;;;;;16.60;12.70;;;28.20;99.90;;;;;;5048784;28;20403;-85
2021/06/21 07:38:50;;;;;;;24.70;13.40;;;28.40;99.90;;;;;;5045368;28;20467;-85
2021/06/21 07:41:16;;;;;;;14.33;12.93;;;28.50;99.90;;;;;;5046072;28;20192;-86
2021/06/21 07:43:45;;;;;;;15.47;12.53;;;28.80;99.90;;;;;;5045961;28;20194;-86
2021/06/21 07:46:10;;;;;;;13.63;12.23;;;28.90;99.90;;;;;;5049280;28;20170;-86
2021/06/21 07:48:40;;;;;;;14.30;12.80;;;29.00;99.90;;;;;;5045709;28;20439;-85
2021/06/21 07:51:07;;;;;;;13.83;12.47;;;29.10;99.90;;;;;;5045986;28;20225;-84
2021/06/21 07:56:27;;;;;;;13.03;11.73;;;29.00;99.90;;;;;;5053688;28;20497;-84
2021/06/21 07:58:54;;;;;;;13.20;11.50;;;28.80;99.90;;;;;;5065245;28;20472;-83
2021/06/21 08:01:22;;;;;;;12.53;11.20;;;28.40;99.90;;;;;;5029089;28;20240;-85
2021/06/21 08:03:47;;;;;;;23.27;10.87;;;28.10;99.90;;;;;;5027202;28;20479;-85
2021/06/21 08:06:13;;;;;;;13.90;11.07;;;28.30;99.90;;;;;;5030190;28;20450;-85
2021/06/21 08:08:40;;;;;;;11.10;10.00;;;28.50;99.90;;;;;;5034233;28;20183;-84
2021/06/21 08:11:07;;;;;;;14.53;9.77;;;28.50;99.90;;;;;;5024946;28;20182;-85
2021/06/21 08:13:33;;;;;;;15.40;8.50;;;28.50;99.90;;;;;;5043230;28;20443;-84
2021/06/21 08:16:34;;;;;;;10.07;8.03;;;28.50;99.90;;;;;;5034912;28;20438;-85
2021/06/21 08:19:00;;;;;;;9.23;6.60;;;28.70;99.90;;;;;;5049089;28;20209;-84
2021/06/21 08:21:26;;;;;;;9.60;7.47;;;28.80;99.90;;;;;;5028722;28;20466;-85
2021/06/21 08:23:53;;;;;;;10.00;7.70;;;28.60;99.90;;;;;;5027758;28;20209;-85
2021/06/21 08:26:18;;;;;;;7.40;6.40;;;28.50;99.90;;;;;;5029429;28;20189;-84
2021/06/21 08:28:44;;;;;;;8.33;6.40;;;28.50;99.90;;;;;;5046428;28;20412;-85
2021/06/21 08:31:10;;;;;;;6.93;6.23;;;28.50;99.90;;;;;;5048443;28;20181;-84
2021/06/21 08:33:35;;;;;;;10.40;7.13;;;28.50;99.90;;;;;;5028301;28;20272;-84
2021/06/21 08:36:02;;;;;;;9.07;5.77;;;28.60;99.90;;;;;;5044699;28;20173;-84
2021/06/21 08:38:30;;;;;;;12.43;7.03;;;28.50;99.90;;;;;;5047075;28;20230;-84
2021/06/21 08:40:58;;;;;;;8.73;5.90;;;28.40;99.90;;;;;;5042210;28;20420;-84
2021/06/21 08:43:24;;;;;;;8.17;5.70;;;28.20;99.90;;;;;;5043679;28;20444;-86
2021/06/21 08:45:50;;;;;;;8.03;5.87;;;28.30;99.90;;;;;;5028792;28;20562;-83
2021/06/21 08:48:19;;;;;;;6.20;5.60;;;28.40;99.90;;;;;;5044533;28;20208;-83
2021/06/21 08:50:45;;;;;;;7.10;5.13;;;28.40;99.90;;;;;;5047139;28;20180;-84
2021/06/21 08:53:16;;;;;;;7.00;5.10;;;28.40;99.90;;;;;;5045794;28;20448;-83
2021/06/21 08:55:50;;;;;;;8.40;4.37;;;28.50;99.90;;;;;;5047188;28;20776;-82
2021/06/21 08:58:22;;;;;;;12.20;5.60;;;28.50;99.90;;;;;;5028569;28;20459;-85
2021/06/21 09:00:48;;;;;;;7.90;4.70;;;28.30;99.90;;;;;;5037976;28;20428;-84
2021/06/21 09:03:19;;;;;;;5.60;5.03;;;28.40;99.90;;;;;;5045981;28;20531;-83
2021/06/21 09:05:52;;;;;;;6.03;4.37;;;28.40;99.90;;;;;;5047430;28;20424;-84
2021/06/21 09:08:21;;;;;;;5.40;4.53;;;28.40;99.90;;;;;;5024044;28;20456;-83
2021/06/21 09:10:50;;;;;;;6.63;3.93;;;28.30;99.90;;;;;;5034900;28;20446;-83
2021/06/21 09:13:18;;;;;;;4.10;3.30;;;28.30;99.90;;;;;;5044205;28;20432;-82
2021/06/21 09:15:55;;;;;;;5.10;3.33;;;28.40;99.90;;;;;;5034748;28;20782;-81
2021/06/21 09:18:40;;;;;;;7.70;2.90;;;28.40;99.90;;;;;;5047300;28;20456;-81
2021/06/21 09:21:26;;;;;;;3.80;2.60;;;28.40;99.90;;;;;;5046848;28;20511;-82
2021/06/21 09:24:00;;;;;;;3.73;2.40;;;28.30;99.90;;;;;;5036524;28;20416;-82
2021/06/21 09:26:28;;;;;;;5.10;2.63;;;28.30;99.90;;;;;;5044983;28;20416;-82
2021/06/21 09:28:55;;;;;;;3.90;2.50;;;28.30;99.90;;;;;;5046559;28;20474;-82
2021/06/21 09:31:47;;;;;;;3.43;2.80;;;28.30;99.90;;;;;;5046874;28;21028;-83
2021/06/21 09:34:17;;;;;;;3.80;2.37;;;28.20;99.90;;;;;;5046487;28;20444;-83
2021/06/21 09:36:43;;;;;;;4.47;2.70;;;28.10;99.90;;;;;;5045897;28;20495;-84
2021/06/21 09:39:22;;;;;;;4.70;2.53;;;28.10;99.90;;;;;;5045475;28;20479;-83
2021/06/21 09:42:07;;;;;;;2.57;2.20;;;28.10;99.90;;;;;;5046223;28;20178;-84
2021/06/21 09:44:40;;;;;;;8.40;3.00;;;28.20;99.90;;;;;;5040243;28;20462;-84
2021/06/21 09:50:30;;;;;;;4.50;2.33;;;28.40;99.90;;;;;;5042718;28;20411;-82
2021/06/21 09:53:01;;;;;;;3.53;2.93;;;28.50;99.90;;;;;;5043631;28;20439;-83
2021/06/21 09:55:44;;;;;;;6.83;2.60;;;28.50;99.90;;;;;;5045464;28;20423;-82
2021/06/21 09:58:13;;;;;;;3.30;2.40;;;28.50;99.90;;;;;;5044703;28;20986;-84
2021/06/21 10:01:07;;;;;;;6.77;3.10;;;28.50;99.90;;;;;;5044215;28;20415;-83
2021/06/21 10:03:39;;;;;;;2.73;2.53;;;28.50;99.90;;;;;;5044718;28;20519;-83
2021/06/21 10:06:09;;;;;;;3.90;3.00;;;28.50;99.90;;;;;;5041397;28;20795;-83
2021/06/21 10:08:54;;;;;;;3.13;2.83;;;28.70;99.90;;;;;;5024809;28;21057;-83
2021/06/21 10:11:31;;;;;;;3.27;2.97;;;28.60;99.90;;;;;;5041299;28;20435;-84
2021/06/21 10:14:09;;;;;;;5.53;4.97;;;28.70;99.90;;;;;;5040039;28;20569;-84
2021/06/21 10:16:38;;;;;;;4.57;3.43;;;28.90;99.90;;;;;;5026533;28;20424;-83
2021/06/21 10:19:08;;;;;;;3.00;2.70;;;28.80;99.90;;;;;;5038615;28;20562;-83
2021/06/21 10:21:37;;;;;;;6.20;3.37;;;28.90;99.90;;;;;;5039599;28;20673;-84
2021/06/21 10:24:04;;;;;;;3.90;3.60;;;28.80;99.90;;;;;;5018710;28;20428;-83
2021/06/21 10:26:31;;;;;;;4.70;3.27;;;28.80;99.90;;;;;;5031189;28;20455;-83
2021/06/21 10:28:58;;;;;;;6.10;3.70;;;28.60;99.90;;;;;;5054504;28;20436;-83
2021/06/21 10:31:29;;;;;;;4.00;3.60;;;28.50;99.90;;;;;;5053736;28;20518;-84
2021/06/21 10:33:57;;;;;;;3.53;3.07;;;28.50;99.90;;;;;;5057171;28;20450;-84
2021/06/21 10:36:38;;;;;;;5.87;3.97;;;28.50;99.90;;;;;;5056083;28;20427;-84
2021/06/21 10:39:31;;;;;;;4.70;4.07;;;28.50;99.90;;;;;;5055990;28;20483;-83
2021/06/21 10:42:37;;;;;;;6.43;3.70;;;28.50;99.90;;;;;;5056112;28;20436;-84
2021/06/21 10:45:05;;;;;;;7.70;4.40;;;28.60;99.90;;;;;;5048642;28;20423;-84
2021/06/21 10:47:45;;;;;;;5.10;3.90;;;28.70;99.90;;;;;;5049676;28;20427;-84
2021/06/21 10:50:17;;;;;;;6.30;3.77;;;28.80;99.90;;;;;;5044949;28;20420;-84
2021/06/21 10:52:48;;;;;;;8.30;4.90;;;28.90;99.90;;;;;;5043507;28;20442;-83
2021/06/21 10:55:38;;;;;;;7.17;4.60;;;28.90;99.90;;;;;;5042545;28;20443;-85
2021/06/21 10:58:22;;;;;;;10.83;4.50;;;28.60;99.90;;;;;;5027050;28;20459;-83
2021/06/21 11:00:50;;;;;;;3.63;3.33;;;28.60;99.90;;;;;;5032990;28;20435;-83
2021/06/21 11:03:37;;;;;;;4.30;4.00;;;28.50;99.90;;;;;;5045198;28;20516;-83
2021/06/21 11:06:22;;;;;;;6.70;4.10;;;28.60;99.90;;;;;;5042346;28;20412;-85
2021/06/21 11:08:55;;;;;;;5.00;4.47;;;28.70;99.90;;;;;;5041596;28;20419;-83
2021/06/21 11:11:38;;;;;;;7.70;4.47;;;28.60;99.90;;;;;;5038821;28;20424;-85
2021/06/21 11:14:07;;;;;;;6.10;4.20;;;28.60;99.90;;;;;;5041995;28;20450;-84
2021/06/21 11:16:35;;;;;;;5.57;4.30;;;28.60;99.90;;;;;;5042526;28;20771;-84
2021/06/21 11:19:42;;;;;;;7.63;4.20;;;28.70;99.90;;;;;;5044482;28;20440;-83
2021/06/21 11:22:08;;;;;;;6.43;4.03;;;28.60;99.90;;;;;;5042425;28;20424;-83
2021/06/21 11:24:47;;;;;;;4.07;3.67;;;28.60;99.90;;;;;;5042873;28;20412;-84
2021/06/21 11:27:15;;;;;;;4.20;3.80;;;28.60;99.90;;;;;;5043746;28;20946;-85
2021/06/21 11:29:46;;;;;;;6.30;4.80;;;28.60;99.90;;;;;;5040984;28;20566;-83
2021/06/21 11:32:14;;;;;;;6.93;4.50;;;28.60;99.90;;;;;;5023695;28;20947;-83
2021/06/21 11:34:50;;;;;;;5.00;4.60;;;28.70;99.90;;;;;;5035669;28;20468;-82
2021/06/21 11:37:36;;;;;;;4.70;4.30;;;28.70;99.90;;;;;;5020054;28;20396;-83
2021/06/21 11:40:15;;;;;;;4.87;4.37;;;28.60;99.90;;;;;;5014199;28;20492;-81
2021/06/21 11:43:01;;;;;;;5.00;3.67;;;28.70;99.90;;;;;;5042340;28;20420;-84
2021/06/21 11:45:56;;;;;;;3.80;3.50;;;28.70;99.90;;;;;;5042197;28;20443;-82
2021/06/21 11:48:32;;;;;;;5.70;4.43;;;28.80;99.90;;;;;;5073392;28;20574;-82
2021/06/21 11:51:10;;;;;;;5.07;3.37;;;28.80;99.90;;;;;;5059622;28;20419;-84
2021/06/21 11:53:36;;;;;;;4.90;3.40;;;28.80;99.90;;;;;;5022854;28;20436;-84
2021/06/21 11:56:02;;;;;;;4.10;3.70;;;28.80;99.90;;;;;;5026771;28;20954;-84
2021/06/21 11:58:32;;;;;;;3.23;2.90;;;28.90;99.90;;;;;;5027261;28;20202;-85
2021/06/21 12:00:59;;;;;;;3.97;3.53;;;28.90;99.90;;;;;;5046092;28;20177;-84
2021/06/21 12:03:38;;;;;;;3.40;3.10;;;28.90;99.90;;;;;;5046896;28;20428;-84
2021/06/21 12:06:04;;;;;;;9.80;4.10;;;28.90;99.90;;;;;;5047176;28;20416;-84
2021/06/21 12:08:36;;;;;;;4.00;3.60;;;28.90;99.90;;;;;;5050212;28;20474;-84
2021/06/21 12:11:22;;;;;;;3.67;3.17;;;29.00;99.90;;;;;;5048692;28;20180;-85
2021/06/21 12:13:57;;;;;;;4.93;4.00;;;28.80;99.90;;;;;;5047226;28;20431;-83
2021/06/21 12:16:24;;;;;;;4.60;4.20;;;28.80;99.90;;;;;;5044259;28;20426;-83
2021/06/21 12:18:54;;;;;;;4.13;3.47;;;28.90;99.90;;;;;;5042984;28;20456;-84
2021/06/21 12:21:35;;;;;;;6.80;3.50;;;28.90;99.90;;;;;;5041830;28;20401;-84
2021/06/21 12:24:20;;;;;;;6.83;2.70;;;28.70;99.90;;;;;;5042549;28;20436;-83
2021/06/21 12:26:48;;;;;;;5.87;4.40;;;28.60;99.90;;;;;;5042395;28;20431;-83
2021/06/21 12:29:28;;;;;;;8.80;3.97;;;28.70;99.90;;;;;;5034897;28;20427;-83
2021/06/21 12:31:53;;;;;;;4.50;3.90;;;28.60;99.90;;;;;;5024091;28;20444;-86
2021/06/21 12:34:48;;;;;;;4.80;2.80;;;28.70;99.90;;;;;;5038741;28;20436;-86
2021/06/21 12:37:25;;;;;;;4.37;3.30;;;28.80;99.90;;;;;;5045131;28;20157;-85
2021/06/21 12:39:55;;;;;;;7.20;3.80;;;28.90;99.90;;;;;;5047551;28;20420;-86
2021/06/21 12:42:21;;;;;;;4.30;3.87;;;29.10;99.90;;;;;;5034757;28;20428;-85
2021/06/21 12:44:48;;;;;;;7.80;3.90;;;29.10;99.90;;;;;;5040080;28;20422;-86
2021/06/21 12:47:17;;;;;;;4.47;3.27;;;29.20;99.90;;;;;;5039716;28;20416;-86
2021/06/21 12:49:44;;;;;;;5.10;4.60;;;29.30;99.90;;;;;;5042277;28;20443;-84
2021/06/21 12:52:10;;;;;;;2.87;2.63;;;29.30;99.90;;;;;;5017505;28;20808;-84
2021/06/21 12:54:36;;;;;;;5.10;3.27;;;29.30;99.90;;;;;;5041347;28;20442;-85
2021/06/21 12:57:03;;;;;;;5.33;3.17;;;29.50;99.90;;;;;;5048043;28;20447;-84